sensor_id;sensor_type;location;lat;lon;timestamp;temperature;humidity
20560;DHT22;10438;51.454;6.718;2023-10-09T00:00:13;15.10;99.90
20560;DHT22;10438;51.454;6.718;2023-10-09T00:03:01;15.10;99.90
20560;DHT22;10438;51.454;6.718;2023-10-09T00:05:27;15.20;99.90
20560;DHT22;10438;51.454;6.718;2023-10-09T00:08:15;15.20;99.90
20560;DHT22;10438;51.454;6.718;2023-10-09T00:10:57;15.10;99.90
20560;DHT22;10438;51.454;6.718;2023-10-09T00:13:26;15.10;99.90
20560;DHT22;10438;51.454;6.718;2023-10-09T00:16:04;15.00;99.90
20560;DHT22;10438;51.454;6.718;2023-10-09T00:18:39;15.00;99.90
20560;DHT22;10438;51.454;6.718;2023-10-09T00:21:04;15.00;99.90
20560;DHT22;10438;51.454;6.718;2023-10-09T00:23:38;15.00;99.90
20560;DHT22;10438;51.454;6.718;2023-10-09T00:26:03;15.00;99.90
20560;DHT22;10438;51.454;6.718;2023-10-09T00:28:41;15.00;99.90
20560;DHT22;10438;51.454;6.718;2023-10-09T00:31:09;15.00;99.90
20560;DHT22;10438;51.454;6.718;2023-10-09T00:33:44;14.90;99.90
20560;DHT22;10438;51.454;6.718;2023-10-09T00:36:10;14.90;99.90
20560;DHT22;10438;51.454;6.718;2023-10-09T00:38:37;14.90;99.90
20560;DHT22;10438;51.454;6.718;2023-10-09T00:41:10;14.90;99.90
20560;DHT22;10438;51.454;6.718;2023-10-09T00:43:37;14.90;99.90
20560;DHT22;10438;51.454;6.718;2023-10-09T00:46:05;15.00;99.90
20560;DHT22;10438;51.454;6.718;2023-10-09T00:48:42;15.00;99.90
20560;DHT22;10438;51.454;6.718;2023-10-09T00:51:08;15.00;99.90
20560;DHT22;10438;51.454;6.718;2023-10-09T00:53:48;15.00;99.90
20560;DHT22;10438;51.454;6.718;2023-10-09T00:56:18;15.00;99.90
20560;DHT22;10438;51.454;6.718;2023-10-09T00:58:59;15.00;99.90
20560;DHT22;10438;51.454;6.718;2023-10-09T01:01:32;15.00;99.90
20560;DHT22;10438;51.454;6.718;2023-10-09T01:04:03;15.00;99.90
20560;DHT22;10438;51.454;6.718;2023-10-09T01:06:43;15.00;99.90
20560;DHT22;10438;51.454;6.718;2023-10-09T01:09:15;14.90;99.90
20560;DHT22;10438;51.454;6.718;2023-10-09T01:11:45;14.90;99.90
20560;DHT22;10438;51.454;6.718;2023-10-09T01:14:16;14.90;99.90
20560;DHT22;10438;51.454;6.718;2023-10-09T01:16:42;14.90;99.90
20560;DHT22;10438;51.454;6.718;2023-10-09T01:19:09;14.90;99.90
20560;DHT22;10438;51.454;6.718;2023-10-09T01:21:53;14.90;99.90
20560;DHT22;10438;51.454;6.718;2023-10-09T01:24:19;14.90;99.90
20560;DHT22;10438;51.454;6.718;2023-10-09T01:26:46;14.80;99.90
20560;DHT22;10438;51.454;6.718;2023-10-09T01:31:42;14.90;99.90
20560;DHT22;10438;51.454;6.718;2023-10-09T01:34:27;14.90;99.90
20560;DHT22;10438;51.454;6.718;2023-10-09T01:37:13;14.90;99.90
20560;DHT22;10438;51.454;6.718;2023-10-09T01:39:50;14.90;99.90
20560;DHT22;10438;51.454;6.718;2023-10-09T01:42:19;14.90;99.90
20560;DHT22;10438;51.454;6.718;2023-10-09T01:45:11;14.90;99.90
20560;DHT22;10438;51.454;6.718;2023-10-09T01:47:37;14.90;99.90
20560;DHT22;10438;51.454;6.718;2023-10-09T01:50:04;14.90;99.90
20560;DHT22;10438;51.454;6.718;2023-10-09T01:52:30;14.90;99.90
20560;DHT22;10438;51.454;6.718;2023-10-09T01:54:56;14.90;99.90
20560;DHT22;10438;51.454;6.718;2023-10-09T01:57:31;14.90;99.90
20560;DHT22;10438;51.454;6.718;2023-10-09T01:59:59;14.80;99.90
20560;DHT22;10438;51.454;6.718;2023-10-09T02:02:24;14.80;99.90
20560;DHT22;10438;51.454;6.718;2023-10-09T02:05:03;14.90;99.90
20560;DHT22;10438;51.454;6.718;2023-10-09T02:07:32;14.80;99.90
20560;DHT22;10438;51.454;6.718;2023-10-09T02:10:07;14.80;99.90
20560;DHT22;10438;51.454;6.718;2023-10-09T02:12:47;14.80;99.90
20560;DHT22;10438;51.454;6.718;2023-10-09T02:15:15;14.80;99.90
20560;DHT22;10438;51.454;6.718;2023-10-09T02:17:41;14.80;99.90
20560;DHT22;10438;51.454;6.718;2023-10-09T02:20:17;14.80;99.90
20560;DHT22;10438;51.454;6.718;2023-10-09T02:22:54;14.80;99.90
20560;DHT22;10438;51.454;6.718;2023-10-09T02:25:20;14.80;99.90
20560;DHT22;10438;51.454;6.718;2023-10-09T02:27:47;14.80;99.90
20560;DHT22;10438;51.454;6.718;2023-10-09T02:30:19;14.80;99.90
20560;DHT22;10438;51.454;6.718;2023-10-09T02:32:54;14.80;99.90
20560;DHT22;10438;51.454;6.718;2023-10-09T02:35:31;14.80;99.90
20560;DHT22;10438;51.454;6.718;2023-10-09T02:38:02;14.80;99.90
20560;DHT22;10438;51.454;6.718;2023-10-09T02:40:32;14.90;99.90
20560;DHT22;10438;51.454;6.718;2023-10-09T02:43:06;14.90;99.90
20560;DHT22;10438;51.454;6.718;2023-10-09T02:45:31;15.00;99.90
20560;DHT22;10438;51.454;6.718;2023-10-09T02:48:01;15.00;99.90
20560;DHT22;10438;51.454;6.718;2023-10-09T02:50:35;15.00;99.90
20560;DHT22;10438;51.454;6.718;2023-10-09T02:53:03;15.10;99.90
20560;DHT22;10438;51.454;6.718;2023-10-09T02:55:34;15.10;99.90
20560;DHT22;10438;51.454;6.718;2023-10-09T02:58:04;15.10;99.90
20560;DHT22;10438;51.454;6.718;2023-10-09T03:00:32;15.10;99.90
20560;DHT22;10438;51.454;6.718;2023-10-09T03:02:58;15.10;99.90
20560;DHT22;10438;51.454;6.718;2023-10-09T03:05:27;15.10;99.90
20560;DHT22;10438;51.454;6.718;2023-10-09T03:07:54;15.20;99.90
20560;DHT22;10438;51.454;6.718;2023-10-09T03:10:22;15.10;99.90
20560;DHT22;10438;51.454;6.718;2023-10-09T03:12:47;15.20;99.90
20560;DHT22;10438;51.454;6.718;2023-10-09T03:15:19;15.20;99.90
20560;DHT22;10438;51.454;6.718;2023-10-09T03:17:45;15.20;99.90
20560;DHT22;10438;51.454;6.718;2023-10-09T03:20:14;15.20;99.90
20560;DHT22;10438;51.454;6.718;2023-10-09T03:22:40;15.30;99.90
20560;DHT22;10438;51.454;6.718;2023-10-09T03:25:07;15.30;99.90
20560;DHT22;10438;51.454;6.718;2023-10-09T03:27:45;15.30;99.90
20560;DHT22;10438;51.454;6.718;2023-10-09T03:30:16;15.30;99.90
20560;DHT22;10438;51.454;6.718;2023-10-09T03:32:45;15.40;99.90
20560;DHT22;10438;51.454;6.718;2023-10-09T03:35:19;15.40;99.90
20560;DHT22;10438;51.454;6.718;2023-10-09T03:37:55;15.40;99.90
20560;DHT22;10438;51.454;6.718;2023-10-09T03:40:37;15.40;99.90
20560;DHT22;10438;51.454;6.718;2023-10-09T03:43:04;15.50;99.90
20560;DHT22;10438;51.454;6.718;2023-10-09T03:45:30;15.50;99.90
20560;DHT22;10438;51.454;6.718;2023-10-09T03:48:00;15.50;99.90
20560;DHT22;10438;51.454;6.718;2023-10-09T03:50:41;15.50;99.90
20560;DHT22;10438;51.454;6.718;2023-10-09T03:53:08;15.50;99.90
20560;DHT22;10438;51.454;6.718;2023-10-09T03:55:37;15.50;99.90
20560;DHT22;10438;51.454;6.718;2023-10-09T03:58:09;15.50;99.90
20560;DHT22;10438;51.454;6.718;2023-10-09T04:00:37;15.60;99.90
20560;DHT22;10438;51.454;6.718;2023-10-09T04:03:14;15.60;99.90
20560;DHT22;10438;51.454;6.718;2023-10-09T04:05:41;15.60;99.90
20560;DHT22;10438;51.454;6.718;2023-10-09T04:08:11;15.60;99.90
20560;DHT22;10438;51.454;6.718;2023-10-09T04:10:55;15.60;99.90
20560;DHT22;10438;51.454;6.718;2023-10-09T04:13:27;15.70;99.90
20560;DHT22;10438;51.454;6.718;2023-10-09T04:15:59;15.70;99.90
20560;DHT22;10438;51.454;6.718;2023-10-09T04:18:28;15.70;99.90
20560;DHT22;10438;51.454;6.718;2023-10-09T04:20:58;15.70;99.90
20560;DHT22;10438;51.454;6.718;2023-10-09T04:23:44;15.70;99.90
20560;DHT22;10438;51.454;6.718;2023-10-09T04:26:34;15.70;99.90
20560;DHT22;10438;51.454;6.718;2023-10-09T04:29:00;15.70;99.90
20560;DHT22;10438;51.454;6.718;2023-10-09T04:31:27;15.70;99.90
20560;DHT22;10438;51.454;6.718;2023-10-09T04:33:58;15.70;99.90
20560;DHT22;10438;51.454;6.718;2023-10-09T04:36:46;15.80;99.90
20560;DHT22;10438;51.454;6.718;2023-10-09T04:39:12;15.80;99.90
20560;DHT22;10438;51.454;6.718;2023-10-09T04:41:38;15.80;99.90
20560;DHT22;10438;51.454;6.718;2023-10-09T04:44:06;15.80;99.90
20560;DHT22;10438;51.454;6.718;2023-10-09T04:47:01;15.90;99.90
20560;DHT22;10438;51.454;6.718;2023-10-09T04:49:38;15.90;99.90
20560;DHT22;10438;51.454;6.718;2023-10-09T04:52:22;15.90;99.90
20560;DHT22;10438;51.454;6.718;2023-10-09T04:54:56;15.90;99.90
20560;DHT22;10438;51.454;6.718;2023-10-09T04:57:35;15.90;99.90
20560;DHT22;10438;51.454;6.718;2023-10-09T05:00:24;15.90;99.90
20560;DHT22;10438;51.454;6.718;2023-10-09T05:02:54;15.90;99.90
20560;DHT22;10438;51.454;6.718;2023-10-09T05:05:25;15.90;99.90
20560;DHT22;10438;51.454;6.718;2023-10-09T05:08:18;15.90;99.90
20560;DHT22;10438;51.454;6.718;2023-10-09T05:13:29;15.90;99.90
20560;DHT22;10438;51.454;6.718;2023-10-09T05:16:13;15.90;99.90
20560;DHT22;10438;51.454;6.718;2023-10-09T05:18:59;15.90;99.90
20560;DHT22;10438;51.454;6.718;2023-10-09T05:21:25;15.90;99.90
20560;DHT22;10438;51.454;6.718;2023-10-09T05:24:02;15.90;99.90
20560;DHT22;10438;51.454;6.718;2023-10-09T05:29:21;15.90;99.90
20560;DHT22;10438;51.454;6.718;2023-10-09T05:32:13;15.90;99.90
20560;DHT22;10438;51.454;6.718;2023-10-09T05:34:40;15.80;99.90
20560;DHT22;10438;51.454;6.718;2023-10-09T05:37:31;15.80;99.90
20560;DHT22;10438;51.454;6.718;2023-10-09T05:40:06;15.70;99.90
20560;DHT22;10438;51.454;6.718;2023-10-09T05:42:35;15.70;99.90
20560;DHT22;10438;51.454;6.718;2023-10-09T05:50:21;15.70;99.90
20560;DHT22;10438;51.454;6.718;2023-10-09T05:52:53;15.70;99.90
20560;DHT22;10438;51.454;6.718;2023-10-09T05:55:20;15.60;99.90
20560;DHT22;10438;51.454;6.718;2023-10-09T05:58:03;15.60;99.90
20560;DHT22;10438;51.454;6.718;2023-10-09T06:00:48;15.60;99.90
20560;DHT22;10438;51.454;6.718;2023-10-09T06:03:32;15.60;99.90
20560;DHT22;10438;51.454;6.718;2023-10-09T06:06:16;15.60;99.90
20560;DHT22;10438;51.454;6.718;2023-10-09T06:09:05;15.50;99.90
20560;DHT22;10438;51.454;6.718;2023-10-09T06:11:49;15.50;99.90
20560;DHT22;10438;51.454;6.718;2023-10-09T06:14:16;15.60;99.90
20560;DHT22;10438;51.454;6.718;2023-10-09T06:16:52;15.50;99.90
20560;DHT22;10438;51.454;6.718;2023-10-09T06:19:20;15.50;99.90
20560;DHT22;10438;51.454;6.718;2023-10-09T06:21:46;15.50;99.90
20560;DHT22;10438;51.454;6.718;2023-10-09T06:24:22;15.50;99.90
20560;DHT22;10438;51.454;6.718;2023-10-09T06:27:06;15.60;99.90
20560;DHT22;10438;51.454;6.718;2023-10-09T06:29:31;15.60;99.90
20560;DHT22;10438;51.454;6.718;2023-10-09T06:32:09;15.60;99.90
20560;DHT22;10438;51.454;6.718;2023-10-09T06:34:48;15.60;99.90
20560;DHT22;10438;51.454;6.718;2023-10-09T06:37:20;15.60;99.90
20560;DHT22;10438;51.454;6.718;2023-10-09T06:39:52;15.70;99.90
20560;DHT22;10438;51.454;6.718;2023-10-09T06:42:27;15.70;99.90
20560;DHT22;10438;51.454;6.718;2023-10-09T06:45:01;15.80;99.90
20560;DHT22;10438;51.454;6.718;2023-10-09T06:47:30;15.90;99.90
20560;DHT22;10438;51.454;6.718;2023-10-09T06:50:15;15.80;99.90
20560;DHT22;10438;51.454;6.718;2023-10-09T06:52:47;15.80;99.90
20560;DHT22;10438;51.454;6.718;2023-10-09T06:55:38;15.90;99.90
20560;DHT22;10438;51.454;6.718;2023-10-09T06:58:30;15.90;99.90
20560;DHT22;10438;51.454;6.718;2023-10-09T07:01:07;15.80;99.90
20560;DHT22;10438;51.454;6.718;2023-10-09T07:03:45;15.90;99.90
20560;DHT22;10438;51.454;6.718;2023-10-09T07:06:25;15.90;99.90
20560;DHT22;10438;51.454;6.718;2023-10-09T07:09:01;15.90;99.90
20560;DHT22;10438;51.454;6.718;2023-10-09T07:11:36;15.90;99.90
20560;DHT22;10438;51.454;6.718;2023-10-09T07:14:08;15.90;99.90
20560;DHT22;10438;51.454;6.718;2023-10-09T07:16:54;16.00;99.90
20560;DHT22;10438;51.454;6.718;2023-10-09T07:19:27;16.00;99.90
20560;DHT22;10438;51.454;6.718;2023-10-09T07:22:11;16.00;99.90
20560;DHT22;10438;51.454;6.718;2023-10-09T07:24:50;16.00;99.90
20560;DHT22;10438;51.454;6.718;2023-10-09T07:27:26;16.00;99.90
20560;DHT22;10438;51.454;6.718;2023-10-09T07:30:30;16.10;99.90
20560;DHT22;10438;51.454;6.718;2023-10-09T07:33:05;16.10;99.90
20560;DHT22;10438;51.454;6.718;2023-10-09T07:35:34;16.20;99.90
20560;DHT22;10438;51.454;6.718;2023-10-09T07:40:45;16.30;99.90
20560;DHT22;10438;51.454;6.718;2023-10-09T07:43:26;16.30;99.90
20560;DHT22;10438;51.454;6.718;2023-10-09T07:45:55;16.30;99.90
20560;DHT22;10438;51.454;6.718;2023-10-09T07:48:24;16.40;99.90
20560;DHT22;10438;51.454;6.718;2023-10-09T07:50:52;16.40;99.90
20560;DHT22;10438;51.454;6.718;2023-10-09T07:53:23;16.30;99.90
20560;DHT22;10438;51.454;6.718;2023-10-09T07:55:55;16.30;99.90
20560;DHT22;10438;51.454;6.718;2023-10-09T07:58:29;16.30;99.90
20560;DHT22;10438;51.454;6.718;2023-10-09T08:00:57;16.30;99.90
20560;DHT22;10438;51.454;6.718;2023-10-09T08:03:36;16.30;99.90
20560;DHT22;10438;51.454;6.718;2023-10-09T08:06:02;16.30;99.90
20560;DHT22;10438;51.454;6.718;2023-10-09T08:08:54;16.30;99.90
20560;DHT22;10438;51.454;6.718;2023-10-09T08:11:41;16.40;99.90
20560;DHT22;10438;51.454;6.718;2023-10-09T08:14:11;16.40;99.90
20560;DHT22;10438;51.454;6.718;2023-10-09T08:16:55;16.50;99.90
20560;DHT22;10438;51.454;6.718;2023-10-09T08:19:56;16.60;99.90
20560;DHT22;10438;51.454;6.718;2023-10-09T08:22:37;16.70;99.90
20560;DHT22;10438;51.454;6.718;2023-10-09T08:25:09;16.80;99.90
20560;DHT22;10438;51.454;6.718;2023-10-09T08:27:58;16.90;99.90
20560;DHT22;10438;51.454;6.718;2023-10-09T08:30:44;16.80;99.90
20560;DHT22;10438;51.454;6.718;2023-10-09T08:33:36;16.80;99.90
20560;DHT22;10438;51.454;6.718;2023-10-09T08:36:06;16.70;99.90
20560;DHT22;10438;51.454;6.718;2023-10-09T08:38:33;16.70;99.90
20560;DHT22;10438;51.454;6.718;2023-10-09T08:41:12;16.70;99.90
20560;DHT22;10438;51.454;6.718;2023-10-09T08:43:50;16.60;99.90
20560;DHT22;10438;51.454;6.718;2023-10-09T08:46:27;16.60;99.90
20560;DHT22;10438;51.454;6.718;2023-10-09T08:48:55;16.70;99.90
20560;DHT22;10438;51.454;6.718;2023-10-09T08:51:23;16.70;99.90
20560;DHT22;10438;51.454;6.718;2023-10-09T08:53:49;16.70;99.90
20560;DHT22;10438;51.454;6.718;2023-10-09T08:56:17;16.70;99.90
20560;DHT22;10438;51.454;6.718;2023-10-09T08:58:53;16.80;99.90
20560;DHT22;10438;51.454;6.718;2023-10-09T09:01:20;16.90;99.90
20560;DHT22;10438;51.454;6.718;2023-10-09T09:03:48;16.90;99.90
20560;DHT22;10438;51.454;6.718;2023-10-09T09:06:14;17.00;99.90
20560;DHT22;10438;51.454;6.718;2023-10-09T09:08:40;17.10;99.90
20560;DHT22;10438;51.454;6.718;2023-10-09T09:11:16;17.30;99.90
20560;DHT22;10438;51.454;6.718;2023-10-09T09:14:03;17.50;99.90
20560;DHT22;10438;51.454;6.718;2023-10-09T09:16:40;17.80;99.90
20560;DHT22;10438;51.454;6.718;2023-10-09T09:19:09;18.10;99.90
20560;DHT22;10438;51.454;6.718;2023-10-09T09:21:37;18.20;99.90
20560;DHT22;10438;51.454;6.718;2023-10-09T09:24:08;18.30;99.90
20560;DHT22;10438;51.454;6.718;2023-10-09T09:26:53;18.30;99.90
20560;DHT22;10438;51.454;6.718;2023-10-09T09:32:04;18.20;99.90
20560;DHT22;10438;51.454;6.718;2023-10-09T09:34:49;18.10;99.90
20560;DHT22;10438;51.454;6.718;2023-10-09T09:37:26;18.10;99.90
20560;DHT22;10438;51.454;6.718;2023-10-09T09:40:00;18.00;99.90
20560;DHT22;10438;51.454;6.718;2023-10-09T09:42:27;18.00;99.90
20560;DHT22;10438;51.454;6.718;2023-10-09T09:44:54;18.00;99.90
20560;DHT22;10438;51.454;6.718;2023-10-09T09:47:21;18.00;99.90
20560;DHT22;10438;51.454;6.718;2023-10-09T09:49:51;17.90;99.90
20560;DHT22;10438;51.454;6.718;2023-10-09T09:52:29;18.00;99.90
20560;DHT22;10438;51.454;6.718;2023-10-09T09:55:07;18.00;99.90
20560;DHT22;10438;51.454;6.718;2023-10-09T09:57:40;18.10;99.90
20560;DHT22;10438;51.454;6.718;2023-10-09T10:00:09;18.10;99.90
20560;DHT22;10438;51.454;6.718;2023-10-09T10:02:54;18.20;99.90
20560;DHT22;10438;51.454;6.718;2023-10-09T10:05:25;18.40;99.90
20560;DHT22;10438;51.454;6.718;2023-10-09T10:07:58;18.40;99.90
20560;DHT22;10438;51.454;6.718;2023-10-09T10:13:00;18.80;99.90
20560;DHT22;10438;51.454;6.718;2023-10-09T10:18:53;19.00;99.90
20560;DHT22;10438;51.454;6.718;2023-10-09T10:21:20;19.00;99.90
20560;DHT22;10438;51.454;6.718;2023-10-09T10:23:57;19.00;99.90
20560;DHT22;10438;51.454;6.718;2023-10-09T10:26:31;19.10;99.90
20560;DHT22;10438;51.454;6.718;2023-10-09T10:29:18;19.00;99.90
20560;DHT22;10438;51.454;6.718;2023-10-09T10:32:00;19.10;99.90
20560;DHT22;10438;51.454;6.718;2023-10-09T10:34:27;19.20;99.90
20560;DHT22;10438;51.454;6.718;2023-10-09T10:37:37;19.20;99.90
20560;DHT22;10438;51.454;6.718;2023-10-09T10:40:24;19.20;99.90
20560;DHT22;10438;51.454;6.718;2023-10-09T10:43:18;19.30;99.90
20560;DHT22;10438;51.454;6.718;2023-10-09T10:46:06;19.30;99.90
20560;DHT22;10438;51.454;6.718;2023-10-09T10:48:53;19.40;99.90
20560;DHT22;10438;51.454;6.718;2023-10-09T10:51:29;19.30;99.90
20560;DHT22;10438;51.454;6.718;2023-10-09T10:54:07;19.40;99.90
20560;DHT22;10438;51.454;6.718;2023-10-09T10:56:53;19.50;99.90
20560;DHT22;10438;51.454;6.718;2023-10-09T10:59:23;19.50;99.90
20560;DHT22;10438;51.454;6.718;2023-10-09T11:01:50;19.60;99.90
20560;DHT22;10438;51.454;6.718;2023-10-09T11:04:25;19.70;99.90
20560;DHT22;10438;51.454;6.718;2023-10-09T11:06:57;20.00;99.90
20560;DHT22;10438;51.454;6.718;2023-10-09T11:09:46;20.30;99.90
20560;DHT22;10438;51.454;6.718;2023-10-09T11:12:26;20.60;99.90
20560;DHT22;10438;51.454;6.718;2023-10-09T11:15:04;20.80;99.90
20560;DHT22;10438;51.454;6.718;2023-10-09T11:18:06;20.70;99.90
20560;DHT22;10438;51.454;6.718;2023-10-09T11:20:52;20.60;99.90
20560;DHT22;10438;51.454;6.718;2023-10-09T11:23:31;20.50;99.90
20560;DHT22;10438;51.454;6.718;2023-10-09T11:26:01;20.50;99.90
20560;DHT22;10438;51.454;6.718;2023-10-09T11:28:45;20.50;99.90
20560;DHT22;10438;51.454;6.718;2023-10-09T11:31:23;20.50;99.90
20560;DHT22;10438;51.454;6.718;2023-10-09T11:33:52;20.60;99.90
20560;DHT22;10438;51.454;6.718;2023-10-09T11:36:20;20.60;99.90
20560;DHT22;10438;51.454;6.718;2023-10-09T11:38:58;20.80;99.90
20560;DHT22;10438;51.454;6.718;2023-10-09T11:41:43;20.90;99.90
20560;DHT22;10438;51.454;6.718;2023-10-09T11:44:10;21.10;99.90
20560;DHT22;10438;51.454;6.718;2023-10-09T11:47:00;21.10;99.90
20560;DHT22;10438;51.454;6.718;2023-10-09T11:49:52;21.10;99.90
20560;DHT22;10438;51.454;6.718;2023-10-09T11:52:31;21.10;99.90
20560;DHT22;10438;51.454;6.718;2023-10-09T11:55:00;21.30;99.90
20560;DHT22;10438;51.454;6.718;2023-10-09T11:57:25;21.50;99.90
20560;DHT22;10438;51.454;6.718;2023-10-09T11:59:57;21.40;99.90
20560;DHT22;10438;51.454;6.718;2023-10-09T12:02:23;21.20;99.90
20560;DHT22;10438;51.454;6.718;2023-10-09T12:04:49;21.20;99.90
20560;DHT22;10438;51.454;6.718;2023-10-09T12:07:15;21.10;99.90
20560;DHT22;10438;51.454;6.718;2023-10-09T12:09:40;21.10;99.90
20560;DHT22;10438;51.454;6.718;2023-10-09T12:12:07;21.20;99.90
20560;DHT22;10438;51.454;6.718;2023-10-09T12:14:34;21.10;99.90
20560;DHT22;10438;51.454;6.718;2023-10-09T12:17:00;21.00;99.90
20560;DHT22;10438;51.454;6.718;2023-10-09T12:19:32;20.80;99.90
20560;DHT22;10438;51.454;6.718;2023-10-09T12:21:58;20.80;99.90
20560;DHT22;10438;51.454;6.718;2023-10-09T12:24:26;20.80;99.90
20560;DHT22;10438;51.454;6.718;2023-10-09T12:26:51;20.80;99.90
20560;DHT22;10438;51.454;6.718;2023-10-09T12:29:18;20.70;99.90
20560;DHT22;10438;51.454;6.718;2023-10-09T12:31:45;20.70;99.90
20560;DHT22;10438;51.454;6.718;2023-10-09T12:34:11;20.80;99.90
20560;DHT22;10438;51.454;6.718;2023-10-09T12:36:45;20.80;99.90
20560;DHT22;10438;51.454;6.718;2023-10-09T12:39:10;20.70;99.90
20560;DHT22;10438;51.454;6.718;2023-10-09T12:41:44;20.80;99.90
20560;DHT22;10438;51.454;6.718;2023-10-09T12:44:09;20.90;99.90
20560;DHT22;10438;51.454;6.718;2023-10-09T12:46:41;20.80;99.90
20560;DHT22;10438;51.454;6.718;2023-10-09T12:49:08;20.90;99.90
20560;DHT22;10438;51.454;6.718;2023-10-09T12:51:33;20.90;99.90
20560;DHT22;10438;51.454;6.718;2023-10-09T12:53:59;20.80;99.90
20560;DHT22;10438;51.454;6.718;2023-10-09T12:56:27;20.90;99.90
20560;DHT22;10438;51.454;6.718;2023-10-09T12:58:59;20.90;99.90
20560;DHT22;10438;51.454;6.718;2023-10-09T13:01:26;20.90;99.90
20560;DHT22;10438;51.454;6.718;2023-10-09T13:04:00;20.90;99.90
20560;DHT22;10438;51.454;6.718;2023-10-09T13:06:26;20.90;99.90
20560;DHT22;10438;51.454;6.718;2023-10-09T13:08:52;20.90;99.90
20560;DHT22;10438;51.454;6.718;2023-10-09T13:11:17;21.00;99.90
20560;DHT22;10438;51.454;6.718;2023-10-09T13:13:44;21.10;99.90
20560;DHT22;10438;51.454;6.718;2023-10-09T13:16:20;21.10;99.90
20560;DHT22;10438;51.454;6.718;2023-10-09T13:18:55;21.20;99.90
20560;DHT22;10438;51.454;6.718;2023-10-09T13:21:23;21.30;99.90
20560;DHT22;10438;51.454;6.718;2023-10-09T13:23:50;21.20;99.90
20560;DHT22;10438;51.454;6.718;2023-10-09T13:26:19;21.30;99.90
20560;DHT22;10438;51.454;6.718;2023-10-09T13:28:56;21.30;99.90
20560;DHT22;10438;51.454;6.718;2023-10-09T13:31:23;21.10;99.90
20560;DHT22;10438;51.454;6.718;2023-10-09T13:33:53;21.00;99.90
20560;DHT22;10438;51.454;6.718;2023-10-09T13:36:23;21.00;99.90
20560;DHT22;10438;51.454;6.718;2023-10-09T13:38:59;21.00;99.90
20560;DHT22;10438;51.454;6.718;2023-10-09T13:41:46;21.10;99.90
20560;DHT22;10438;51.454;6.718;2023-10-09T13:44:11;21.30;99.90
20560;DHT22;10438;51.454;6.718;2023-10-09T13:46:37;21.40;99.90
20560;DHT22;10438;51.454;6.718;2023-10-09T13:49:07;21.50;99.90
20560;DHT22;10438;51.454;6.718;2023-10-09T13:51:41;21.40;99.90
20560;DHT22;10438;51.454;6.718;2023-10-09T13:54:13;21.40;99.90
20560;DHT22;10438;51.454;6.718;2023-10-09T13:56:49;21.40;99.90
20560;DHT22;10438;51.454;6.718;2023-10-09T13:59:21;21.40;99.90
20560;DHT22;10438;51.454;6.718;2023-10-09T14:01:54;21.30;99.90
20560;DHT22;10438;51.454;6.718;2023-10-09T14:04:21;21.30;99.90
20560;DHT22;10438;51.454;6.718;2023-10-09T14:06:48;21.30;99.90
20560;DHT22;10438;51.454;6.718;2023-10-09T14:09:14;21.20;99.90
20560;DHT22;10438;51.454;6.718;2023-10-09T14:12:01;21.20;99.90
20560;DHT22;10438;51.454;6.718;2023-10-09T14:14:41;21.20;99.90
20560;DHT22;10438;51.454;6.718;2023-10-09T14:17:13;21.10;99.90
20560;DHT22;10438;51.454;6.718;2023-10-09T14:19:43;21.00;99.90
20560;DHT22;10438;51.454;6.718;2023-10-09T14:22:16;21.00;99.90
20560;DHT22;10438;51.454;6.718;2023-10-09T14:24:51;21.00;99.90
20560;DHT22;10438;51.454;6.718;2023-10-09T14:27:25;21.00;99.90
20560;DHT22;10438;51.454;6.718;2023-10-09T14:30:00;21.00;99.90
20560;DHT22;10438;51.454;6.718;2023-10-09T14:32:26;21.00;99.90
20560;DHT22;10438;51.454;6.718;2023-10-09T14:34:59;21.00;99.90
20560;DHT22;10438;51.454;6.718;2023-10-09T14:37:27;21.10;99.90
20560;DHT22;10438;51.454;6.718;2023-10-09T14:39:52;21.10;99.90
20560;DHT22;10438;51.454;6.718;2023-10-09T14:42:18;21.10;99.90
20560;DHT22;10438;51.454;6.718;2023-10-09T14:44:45;21.10;99.90
20560;DHT22;10438;51.454;6.718;2023-10-09T14:47:11;21.10;99.90
20560;DHT22;10438;51.454;6.718;2023-10-09T14:49:39;21.00;99.90
20560;DHT22;10438;51.454;6.718;2023-10-09T14:52:12;20.90;99.90
20560;DHT22;10438;51.454;6.718;2023-10-09T14:54:42;20.70;99.90
20560;DHT22;10438;51.454;6.718;2023-10-09T14:57:07;20.70;99.90
20560;DHT22;10438;51.454;6.718;2023-10-09T14:59:33;20.60;99.90
20560;DHT22;10438;51.454;6.718;2023-10-09T15:01:59;20.50;99.90
20560;DHT22;10438;51.454;6.718;2023-10-09T15:04:25;20.40;99.90
20560;DHT22;10438;51.454;6.718;2023-10-09T15:06:54;20.40;99.90
20560;DHT22;10438;51.454;6.718;2023-10-09T15:09:19;20.30;99.90
20560;DHT22;10438;51.454;6.718;2023-10-09T15:11:51;20.30;99.90
20560;DHT22;10438;51.454;6.718;2023-10-09T15:14:17;20.20;99.90
20560;DHT22;10438;51.454;6.718;2023-10-09T15:16:46;20.20;99.90
20560;DHT22;10438;51.454;6.718;2023-10-09T15:19:13;20.20;99.90
20560;DHT22;10438;51.454;6.718;2023-10-09T15:21:39;20.20;99.90
20560;DHT22;10438;51.454;6.718;2023-10-09T15:24:12;20.20;99.90
20560;DHT22;10438;51.454;6.718;2023-10-09T15:26:44;20.30;99.90
20560;DHT22;10438;51.454;6.718;2023-10-09T15:29:18;20.20;99.90
20560;DHT22;10438;51.454;6.718;2023-10-09T15:31:45;20.10;99.90
20560;DHT22;10438;51.454;6.718;2023-10-09T15:34:12;20.10;99.90
20560;DHT22;10438;51.454;6.718;2023-10-09T15:36:38;20.10;99.90
20560;DHT22;10438;51.454;6.718;2023-10-09T15:39:05;20.10;99.90
20560;DHT22;10438;51.454;6.718;2023-10-09T15:41:33;20.20;99.90
20560;DHT22;10438;51.454;6.718;2023-10-09T15:44:00;20.10;99.90
20560;DHT22;10438;51.454;6.718;2023-10-09T15:46:27;20.20;99.90
20560;DHT22;10438;51.454;6.718;2023-10-09T15:48:53;20.20;99.90
20560;DHT22;10438;51.454;6.718;2023-10-09T15:51:21;20.30;99.90
20560;DHT22;10438;51.454;6.718;2023-10-09T15:53:47;20.30;99.90
20560;DHT22;10438;51.454;6.718;2023-10-09T15:56:13;20.30;99.90
20560;DHT22;10438;51.454;6.718;2023-10-09T15:58:43;20.30;99.90
20560;DHT22;10438;51.454;6.718;2023-10-09T16:01:17;20.20;99.90
20560;DHT22;10438;51.454;6.718;2023-10-09T16:03:48;20.10;99.90
20560;DHT22;10438;51.454;6.718;2023-10-09T16:06:14;20.00;99.90
20560;DHT22;10438;51.454;6.718;2023-10-09T16:08:42;20.00;99.90
20560;DHT22;10438;51.454;6.718;2023-10-09T16:11:11;20.00;99.90
20560;DHT22;10438;51.454;6.718;2023-10-09T16:13:38;19.90;99.90
20560;DHT22;10438;51.454;6.718;2023-10-09T16:16:04;19.80;99.90
20560;DHT22;10438;51.454;6.718;2023-10-09T16:18:33;19.80;99.90
20560;DHT22;10438;51.454;6.718;2023-10-09T16:20:59;19.70;99.90
20560;DHT22;10438;51.454;6.718;2023-10-09T16:23:29;19.70;99.90
20560;DHT22;10438;51.454;6.718;2023-10-09T16:25:54;19.60;99.90
20560;DHT22;10438;51.454;6.718;2023-10-09T16:28:22;19.60;99.90
20560;DHT22;10438;51.454;6.718;2023-10-09T16:30:47;19.60;99.90